createdAt,value
2023-05-13T00:02:28.748Z,9.23
2023-05-13T00:05:34.486Z,9.02
2023-05-13T00:08:40.208Z,8.63
2023-05-13T00:11:45.811Z,9.00
2023-05-13T00:14:51.256Z,8.63
2023-05-13T00:17:59.703Z,8.35
2023-05-13T00:21:05.023Z,9.52
2023-05-13T00:24:10.918Z,9.05
2023-05-13T00:27:16.324Z,8.13
2023-05-13T00:30:22.467Z,8.90
2023-05-13T00:33:30.782Z,7.93
2023-05-13T00:36:36.385Z,8.18
2023-05-13T00:39:42.363Z,7.70
2023-05-13T00:42:47.840Z,9.20
2023-05-13T00:45:53.734Z,9.80
2023-05-13T00:49:01.905Z,9.80
2023-05-13T00:52:07.367Z,9.68
2023-05-13T00:55:13.448Z,9.45
2023-05-13T00:58:18.907Z,9.05
2023-05-13T01:01:29.306Z,8.77
2023-05-13T01:04:44.483Z,8.25
2023-05-13T01:07:55.699Z,8.48
2023-05-13T01:11:02.652Z,9.10
2023-05-13T01:14:11.782Z,9.00
2023-05-13T01:17:19.373Z,8.27
2023-05-13T01:20:27.514Z,9.45
2023-05-13T01:23:35.675Z,9.45
2023-05-13T01:26:41.992Z,10.30
2023-05-13T01:29:49.616Z,8.90
2023-05-13T01:32:59.761Z,9.75
2023-05-13T01:36:06.069Z,10.23
2023-05-13T01:39:14.992Z,9.57
2023-05-13T01:42:20.530Z,9.10
2023-05-13T01:45:26.335Z,8.50
2023-05-13T01:48:31.850Z,8.88
2023-05-13T01:51:38.246Z,8.93
2023-05-13T01:54:47.185Z,7.45
2023-05-13T01:57:53.785Z,8.32
2023-05-13T02:00:59.282Z,8.27
2023-05-13T02:04:04.929Z,8.18
2023-05-13T02:07:10.742Z,8.13
2023-05-13T02:10:18.795Z,9.93
2023-05-13T02:13:24.374Z,7.55
2023-05-13T02:16:30.028Z,8.10
2023-05-13T02:19:35.797Z,8.75
2023-05-13T02:22:41.545Z,9.45
2023-05-13T02:25:49.908Z,9.82
2023-05-13T02:28:55.290Z,9.15
2023-05-13T02:32:01.021Z,7.65
2023-05-13T02:35:06.564Z,8.15
2023-05-13T02:38:12.987Z,8.80
2023-05-13T02:41:20.809Z,8.95
2023-05-13T02:44:27.788Z,9.27
2023-05-13T02:47:33.398Z,8.80
2023-05-13T02:50:43.491Z,7.72
2023-05-13T02:53:49.642Z,8.07
2023-05-13T02:56:57.889Z,8.10
2023-05-13T03:00:03.322Z,7.53
2023-05-13T03:03:10.616Z,8.10
2023-05-13T03:06:16.484Z,8.40
2023-05-13T03:09:21.821Z,8.82
2023-05-13T03:12:30.190Z,8.13
2023-05-13T03:15:35.316Z,8.20
2023-05-13T03:18:40.736Z,7.80
2023-05-13T03:21:46.150Z,7.25
2023-05-13T03:24:54.075Z,8.57
2023-05-13T03:28:06.387Z,7.68
2023-05-13T03:31:16.563Z,7.93
2023-05-13T03:34:22.275Z,8.27
2023-05-13T03:37:28.064Z,8.35
2023-05-13T03:40:33.871Z,8.13
2023-05-13T03:43:42.033Z,8.70
2023-05-13T03:46:50.308Z,7.68
2023-05-13T03:49:57.985Z,8.87
2023-05-13T03:53:04.105Z,7.20
2023-05-13T03:56:11.276Z,6.82
2023-05-13T03:59:20.313Z,7.45
2023-05-13T04:02:25.777Z,7.57
2023-05-13T04:05:31.354Z,6.47
2023-05-13T04:08:37.604Z,7.00
2023-05-13T04:11:42.878Z,6.20
2023-05-13T04:14:50.938Z,6.32
2023-05-13T04:17:56.824Z,6.82
2023-05-13T04:21:02.243Z,6.68
2023-05-13T04:24:08.241Z,5.88
2023-05-13T04:27:13.914Z,5.57
2023-05-13T04:30:22.313Z,5.68
2023-05-13T04:33:28.002Z,5.40
2023-05-13T04:36:33.413Z,5.75
2023-05-13T04:39:38.869Z,5.93
2023-05-13T04:42:44.622Z,4.50
2023-05-13T04:45:53.326Z,4.65
2023-05-13T04:49:00.000Z,3.50
2023-05-13T04:52:06.121Z,3.97
2023-05-13T04:55:12.722Z,4.03
2023-05-13T04:58:18.212Z,3.80
2023-05-13T05:01:26.809Z,3.40
2023-05-13T05:04:32.261Z,3.65
2023-05-13T05:07:40.814Z,3.28
2023-05-13T05:10:47.813Z,4.40
2023-05-13T05:13:54.425Z,3.78
2023-05-13T05:17:02.641Z,3.30
2023-05-13T05:20:08.833Z,3.40
2023-05-13T05:23:15.723Z,4.00
2023-05-13T05:26:22.747Z,4.15
2023-05-13T05:29:28.524Z,3.45
2023-05-13T05:32:36.692Z,3.42
2023-05-13T05:35:43.476Z,3.03
2023-05-13T05:38:52.976Z,3.47
2023-05-13T05:42:01.218Z,3.38
2023-05-13T05:45:07.529Z,3.05
2023-05-13T05:48:16.018Z,3.95
2023-05-13T05:54:27.210Z,3.20
2023-05-13T05:57:33.045Z,3.97
2023-05-13T06:00:38.528Z,3.33
2023-05-13T06:03:46.752Z,3.63
2023-05-13T06:06:53.689Z,3.58
2023-05-13T06:10:00.306Z,3.42
2023-05-13T06:13:06.264Z,3.60
2023-05-13T06:16:13.124Z,3.53
2023-05-13T06:19:21.029Z,3.45
2023-05-13T06:22:26.359Z,4.28
2023-05-13T06:25:31.935Z,3.47
2023-05-13T06:28:37.336Z,3.40
2023-05-13T06:31:42.765Z,3.80
2023-05-13T06:34:54.561Z,3.58
2023-05-13T06:38:01.812Z,3.40
2023-05-13T06:41:07.802Z,4.00
2023-05-13T06:44:15.304Z,4.03
2023-05-13T06:47:24.584Z,3.33
2023-05-13T06:50:32.970Z,3.85
2023-05-13T06:53:38.766Z,3.67
2023-05-13T06:56:44.033Z,3.35
2023-05-13T06:59:49.648Z,3.38
2023-05-13T07:02:54.934Z,3.53
2023-05-13T07:06:03.003Z,3.90
2023-05-13T07:09:09.953Z,3.60
2023-05-13T07:12:15.299Z,3.47
2023-05-13T07:15:21.083Z,3.50
2023-05-13T07:18:27.160Z,4.00
2023-05-13T07:21:35.833Z,4.38
2023-05-13T07:24:41.479Z,4.43
2023-05-13T07:27:46.820Z,4.32
2023-05-13T07:30:53.897Z,4.45
2023-05-13T07:33:59.521Z,3.92
2023-05-13T07:37:07.671Z,4.15
2023-05-13T07:40:14.362Z,4.30
2023-05-13T07:43:24.277Z,4.90
2023-05-13T07:46:29.823Z,4.50
2023-05-13T07:49:35.684Z,3.60
2023-05-13T07:52:43.905Z,3.58
2023-05-13T07:55:49.207Z,3.45
2023-05-13T07:58:54.554Z,4.13
2023-05-13T08:02:00.059Z,3.80
2023-05-13T08:05:05.715Z,3.08
2023-05-13T08:08:13.711Z,3.53
2023-05-13T08:11:18.915Z,3.47
2023-05-13T08:14:24.659Z,3.90
2023-05-13T08:17:30.036Z,3.50
2023-05-13T08:20:35.710Z,3.28
2023-05-13T08:23:45.401Z,4.97
2023-05-13T08:26:51.885Z,3.60
2023-05-13T08:29:57.067Z,3.97
2023-05-13T08:33:02.945Z,4.15
2023-05-13T08:36:09.142Z,3.35
2023-05-13T08:39:17.261Z,3.97
2023-05-13T08:45:31.332Z,3.60
2023-05-13T08:48:37.190Z,3.65
2023-05-13T08:51:44.716Z,3.25
2023-05-13T08:54:52.877Z,3.72
2023-05-13T08:57:58.544Z,5.68
2023-05-13T09:01:04.274Z,4.82
2023-05-13T09:04:10.177Z,3.70
2023-05-13T09:07:15.466Z,4.00
2023-05-13T09:10:23.902Z,4.00
2023-05-13T09:13:29.402Z,4.03
2023-05-13T09:16:36.955Z,4.50
2023-05-13T09:19:44.562Z,3.58
2023-05-13T09:22:50.365Z,2.90
2023-05-13T09:25:58.641Z,3.20
2023-05-13T09:32:10.173Z,3.85
2023-05-13T09:35:19.613Z,3.15
2023-05-13T09:38:25.455Z,3.70
2023-05-13T09:41:33.674Z,3.85
2023-05-13T09:44:40.067Z,4.18
2023-05-13T09:47:46.048Z,3.90
2023-05-13T09:50:52.627Z,2.90
2023-05-13T09:53:58.633Z,3.35
2023-05-13T09:57:07.070Z,3.22
2023-05-13T10:00:24.796Z,3.10
2023-05-13T10:03:37.764Z,2.97
2023-05-13T10:06:43.298Z,3.13
2023-05-13T10:09:49.115Z,3.92
2023-05-13T10:12:57.276Z,3.28
2023-05-13T10:19:08.850Z,2.58
2023-05-13T10:22:15.291Z,3.05
2023-05-13T10:25:20.940Z,2.92
2023-05-13T10:28:29.744Z,3.42
2023-05-13T10:31:35.556Z,3.67
2023-05-13T10:34:41.952Z,3.42
2023-05-13T10:37:57.472Z,3.42
2023-05-13T10:41:09.752Z,3.20
2023-05-13T10:44:17.916Z,3.00
2023-05-13T10:50:29.820Z,3.97
2023-05-13T10:53:35.613Z,3.65
2023-05-13T10:56:41.250Z,3.67
2023-05-13T11:00:01.787Z,3.80
2023-05-13T11:03:17.940Z,3.35
2023-05-13T11:06:25.086Z,3.40
2023-05-13T11:09:33.800Z,2.90
2023-05-13T11:12:39.255Z,2.70
2023-05-13T11:15:48.084Z,3.13
2023-05-13T11:18:57.189Z,3.22
2023-05-13T11:22:08.617Z,3.25
2023-05-13T11:25:15.977Z,3.25
2023-05-13T11:28:21.518Z,4.05
2023-05-13T11:31:27.436Z,3.30
2023-05-13T11:34:36.441Z,3.72
2023-05-13T11:37:45.875Z,2.80
2023-05-13T11:40:51.405Z,3.30
2023-05-13T11:43:59.944Z,2.95
2023-05-13T11:47:06.312Z,2.75
2023-05-13T11:50:23.553Z,3.20
2023-05-13T11:53:28.731Z,2.65
2023-05-13T11:56:34.364Z,3.30
2023-05-13T11:59:47.879Z,3.03
2023-05-13T12:02:53.801Z,2.67
2023-05-13T12:06:06.529Z,3.10
2023-05-13T12:09:12.053Z,2.97
2023-05-13T12:12:17.940Z,2.80
2023-05-13T12:15:24.484Z,3.10
2023-05-13T12:18:30.221Z,2.92
2023-05-13T12:21:38.248Z,3.00
2023-05-13T12:24:43.771Z,3.03
2023-05-13T12:27:54.285Z,2.70
2023-05-13T12:31:01.433Z,3.42
2023-05-13T12:34:07.800Z,2.92
2023-05-13T12:37:16.614Z,2.65
2023-05-13T12:40:22.145Z,3.00
2023-05-13T12:43:30.567Z,2.83
2023-05-13T12:46:36.218Z,3.63
2023-05-13T12:49:54.585Z,3.25
2023-05-13T12:53:03.140Z,3.53
2023-05-13T12:56:08.975Z,3.10
2023-05-13T12:59:16.445Z,3.17
2023-05-13T13:02:21.901Z,3.58
2023-05-13T13:05:27.796Z,2.83
2023-05-13T13:08:35.648Z,3.17
2023-05-13T13:11:40.892Z,3.22
2023-05-13T13:14:46.513Z,3.20
2023-05-13T13:17:52.020Z,3.35
2023-05-13T13:20:58.096Z,3.65
2023-05-13T13:24:05.830Z,3.28
2023-05-13T13:27:11.623Z,3.05
2023-05-13T13:30:17.589Z,3.33
2023-05-13T13:33:23.519Z,3.40
2023-05-13T13:36:28.904Z,2.90
2023-05-13T13:39:36.945Z,3.38
2023-05-13T13:42:44.606Z,3.38
2023-05-13T13:45:51.086Z,3.10
2023-05-13T13:48:56.348Z,2.97
2023-05-13T13:52:01.818Z,3.45
2023-05-13T13:55:11.849Z,2.90
2023-05-13T13:58:17.866Z,3.90
2023-05-13T14:01:23.422Z,3.05
2023-05-13T14:04:30.632Z,2.78
2023-05-13T14:07:36.196Z,3.30
2023-05-13T14:10:44.661Z,3.13
2023-05-13T14:13:50.062Z,2.70
2023-05-13T14:16:55.680Z,3.30
2023-05-13T14:20:01.232Z,3.58
2023-05-13T14:23:09.364Z,3.22
2023-05-13T14:26:17.305Z,2.92
2023-05-13T14:29:23.006Z,3.17
2023-05-13T14:32:28.565Z,2.97
2023-05-13T14:35:33.893Z,3.03
2023-05-13T14:38:40.202Z,3.50
2023-05-13T14:41:48.444Z,3.20
2023-05-13T14:44:53.713Z,3.42
2023-05-13T14:47:59.797Z,3.30
2023-05-13T14:51:05.441Z,3.22
2023-05-13T14:54:10.914Z,3.30
2023-05-13T14:57:18.990Z,2.85
2023-05-13T15:00:24.740Z,3.72
2023-05-13T15:03:30.633Z,2.88
2023-05-13T15:06:36.060Z,3.05
2023-05-13T15:09:41.624Z,2.97
2023-05-13T15:12:49.779Z,2.80
2023-05-13T15:15:55.038Z,2.60
2023-05-13T15:19:00.848Z,3.00
2023-05-13T15:22:06.319Z,3.10
2023-05-13T15:25:12.108Z,4.20
2023-05-13T15:28:20.482Z,3.47
2023-05-13T15:31:26.271Z,3.50
2023-05-13T15:34:31.949Z,3.78
2023-05-13T15:37:37.722Z,3.90
2023-05-13T15:40:43.103Z,3.58
2023-05-13T15:43:51.211Z,3.33
2023-05-13T15:50:01.742Z,5.15
2023-05-13T15:53:10.144Z,3.30
2023-05-13T15:56:15.694Z,3.50
2023-05-13T15:59:23.684Z,5.88
2023-05-13T16:02:30.056Z,3.75
2023-05-13T16:05:36.650Z,3.50
2023-05-13T16:08:42.048Z,3.60
2023-05-13T16:11:47.732Z,3.58
2023-05-13T16:14:55.912Z,4.35
2023-05-13T16:18:01.022Z,3.78
2023-05-13T16:21:07.208Z,3.53
2023-05-13T16:24:12.615Z,3.53
2023-05-13T16:27:18.386Z,4.05
2023-05-13T16:30:26.591Z,3.90
2023-05-13T16:33:33.407Z,5.82
2023-05-13T16:36:39.285Z,4.50
2023-05-13T16:39:44.855Z,4.22
2023-05-13T16:42:50.535Z,4.50
2023-05-13T16:45:58.543Z,3.80
2023-05-13T16:49:03.835Z,3.70
2023-05-13T16:52:09.814Z,4.20
2023-05-13T16:55:16.039Z,3.72
2023-05-13T16:58:21.516Z,4.32
2023-05-13T17:01:29.765Z,4.15
2023-05-13T17:07:40.315Z,4.43
2023-05-13T17:10:45.793Z,3.67
2023-05-13T17:13:51.053Z,4.20
2023-05-13T17:16:58.979Z,4.63
2023-05-13T17:20:05.765Z,4.43
2023-05-13T17:23:11.165Z,4.13
2023-05-13T17:26:16.802Z,4.63
2023-05-13T17:29:22.412Z,4.07
2023-05-13T17:32:32.120Z,5.15
2023-05-13T17:35:37.841Z,4.55
2023-05-13T17:38:43.152Z,4.57
2023-05-13T17:41:48.827Z,3.95
2023-05-13T17:44:54.612Z,5.13
2023-05-13T17:48:02.882Z,4.82
2023-05-13T17:51:08.750Z,4.55
2023-05-13T17:54:14.499Z,4.47
2023-05-13T17:57:20.116Z,4.07
2023-05-13T18:00:25.481Z,4.10
2023-05-13T18:03:33.718Z,4.50
2023-05-13T18:06:39.354Z,5.25
2023-05-13T18:09:44.685Z,4.40
2023-05-13T18:12:52.210Z,4.45
2023-05-13T18:15:57.657Z,4.82
2023-05-13T18:19:07.342Z,4.25
2023-05-13T18:22:12.741Z,4.72
2023-05-13T18:25:18.323Z,4.35
2023-05-13T18:28:23.909Z,3.85
2023-05-13T18:31:29.540Z,4.30
2023-05-13T18:34:37.616Z,5.13
2023-05-13T18:37:43.244Z,4.55
2023-05-13T18:40:48.956Z,4.60
2023-05-13T18:43:54.317Z,4.90
2023-05-13T18:46:59.679Z,4.45
2023-05-13T18:50:08.331Z,4.72
2023-05-13T18:53:13.868Z,4.47
2023-05-13T18:56:19.533Z,4.35
2023-05-13T18:59:24.691Z,5.05
2023-05-13T19:02:30.773Z,5.03
2023-05-13T19:05:39.214Z,5.20
2023-05-13T19:08:44.999Z,5.10
2023-05-13T19:11:50.316Z,5.80
2023-05-13T19:14:56.064Z,5.30
2023-05-13T19:18:01.624Z,5.25
2023-05-13T19:21:09.975Z,4.68
2023-05-13T19:24:15.442Z,5.28
2023-05-13T19:27:22.043Z,5.22
2023-05-13T19:30:27.460Z,4.88
2023-05-13T19:33:32.881Z,6.40
2023-05-13T19:36:40.910Z,4.80
2023-05-13T19:39:46.501Z,4.75
2023-05-13T19:42:52.300Z,5.65
2023-05-13T19:45:58.225Z,4.97
2023-05-13T19:49:03.469Z,4.53
2023-05-13T19:52:11.890Z,6.57
2023-05-13T19:55:17.603Z,5.20
2023-05-13T19:58:23.344Z,4.88
2023-05-13T20:01:28.828Z,3.97
2023-05-13T20:04:34.429Z,5.93
2023-05-13T20:07:42.614Z,4.45
2023-05-13T20:10:47.887Z,3.70
2023-05-13T20:13:53.463Z,3.22
2023-05-13T20:16:59.833Z,3.20
2023-05-13T20:20:05.705Z,2.80
2023-05-13T20:23:14.704Z,2.70
2023-05-13T20:26:20.395Z,4.20
2023-05-13T20:29:26.523Z,3.00
2023-05-13T20:32:31.905Z,3.28
2023-05-13T20:35:37.329Z,2.80
2023-05-13T20:38:45.400Z,2.95
2023-05-13T20:41:51.202Z,3.28
2023-05-13T20:44:56.542Z,2.53
2023-05-13T20:48:02.314Z,2.70
2023-05-13T20:51:08.316Z,2.60
2023-05-13T20:54:17.345Z,2.83
2023-05-13T20:57:24.546Z,3.38
2023-05-13T21:00:30.343Z,3.05
2023-05-13T21:03:35.811Z,2.67
2023-05-13T21:06:41.330Z,2.95
2023-05-13T21:09:49.610Z,3.30
2023-05-13T21:12:55.231Z,2.80
2023-05-13T21:16:00.663Z,3.35
2023-05-13T21:19:06.470Z,2.83
2023-05-13T21:22:11.789Z,2.70
2023-05-13T21:25:19.833Z,2.50
2023-05-13T21:28:25.913Z,3.05
2023-05-13T21:31:31.380Z,3.00
2023-05-13T21:34:36.867Z,2.65
2023-05-13T21:37:42.486Z,3.08
2023-05-13T21:40:50.449Z,3.08
2023-05-13T21:43:56.123Z,2.92
2023-05-13T21:47:01.636Z,3.00
2023-05-13T21:50:07.735Z,2.65
2023-05-13T21:53:13.544Z,2.47
2023-05-13T21:56:22.100Z,2.72
2023-05-13T22:02:33.157Z,2.92
2023-05-13T22:05:44.329Z,2.67
2023-05-13T22:08:49.492Z,2.80
2023-05-13T22:11:57.633Z,2.15
2023-05-13T22:15:03.093Z,2.50
2023-05-13T22:18:13.173Z,2.40
2023-05-13T22:21:18.513Z,2.53
2023-05-13T22:24:24.259Z,2.35
2023-05-13T22:27:32.010Z,2.50
2023-05-13T22:30:37.698Z,2.60
2023-05-13T22:33:44.569Z,2.22
2023-05-13T22:36:49.808Z,2.20
2023-05-13T22:39:55.210Z,2.53
2023-05-13T22:43:03.356Z,2.40
2023-05-13T22:46:09.367Z,5.47
2023-05-13T22:49:14.705Z,2.70
2023-05-13T22:52:20.321Z,2.40
2023-05-13T22:55:25.546Z,2.30
2023-05-13T22:58:33.716Z,2.50
2023-05-13T23:01:39.061Z,2.88
2023-05-13T23:04:44.730Z,2.33
2023-05-13T23:07:49.965Z,2.33
2023-05-13T23:10:55.337Z,2.47
2023-05-13T23:14:03.340Z,2.35
2023-05-13T23:17:08.962Z,2.10
2023-05-13T23:20:14.765Z,2.33
2023-05-13T23:23:20.347Z,2.38
2023-05-13T23:26:26.192Z,2.20
2023-05-13T23:29:34.390Z,2.55
2023-05-13T23:32:39.611Z,2.67
2023-05-13T23:35:45.026Z,2.13
2023-05-13T23:38:51.154Z,2.95
2023-05-13T23:41:56.376Z,2.15
2023-05-13T23:45:04.513Z,2.22
2023-05-13T23:48:13.224Z,2.47
2023-05-13T23:51:18.865Z,2.35
2023-05-13T23:54:24.523Z,2.17
2023-05-13T23:57:29.855Z,2.45
